sensor_id;sensor_type;location;lat;lon;timestamp;P1;durP1;ratioP1;P2;durP2;ratioP2
11024;SDS011;22890;51.820;8.682;2023-05-27T00:01:20;9.67;;;4.10;;
11024;SDS011;22890;51.820;8.682;2023-05-27T00:03:47;10.67;;;4.20;;
11024;SDS011;22890;51.820;8.682;2023-05-27T00:06:14;14.60;;;4.13;;
11024;SDS011;22890;51.820;8.682;2023-05-27T00:08:41;13.33;;;3.53;;
11024;SDS011;22890;51.820;8.682;2023-05-27T00:11:08;14.67;;;3.90;;
11024;SDS011;22890;51.820;8.682;2023-05-27T00:13:36;11.43;;;4.73;;
11024;SDS011;22890;51.820;8.682;2023-05-27T00:16:03;10.80;;;4.07;;
11024;SDS011;22890;51.820;8.682;2023-05-27T00:18:30;16.17;;;4.50;;
11024;SDS011;22890;51.820;8.682;2023-05-27T00:20:59;11.73;;;4.30;;
11024;SDS011;22890;51.820;8.682;2023-05-27T00:23:25;9.73;;;3.90;;
11024;SDS011;22890;51.820;8.682;2023-05-27T00:25:53;11.30;;;3.70;;
11024;SDS011;22890;51.820;8.682;2023-05-27T00:28:20;10.30;;;4.37;;
11024;SDS011;22890;51.820;8.682;2023-05-27T00:30:47;10.03;;;3.87;;
11024;SDS011;22890;51.820;8.682;2023-05-27T00:33:15;7.50;;;3.37;;
11024;SDS011;22890;51.820;8.682;2023-05-27T00:35:42;13.27;;;4.00;;
11024;SDS011;22890;51.820;8.682;2023-05-27T00:38:09;11.30;;;4.23;;
11024;SDS011;22890;51.820;8.682;2023-05-27T00:40:36;9.83;;;3.67;;
11024;SDS011;22890;51.820;8.682;2023-05-27T00:43:06;8.77;;;4.30;;
11024;SDS011;22890;51.820;8.682;2023-05-27T00:45:33;13.10;;;3.73;;
11024;SDS011;22890;51.820;8.682;2023-05-27T00:48:01;8.73;;;4.03;;
11024;SDS011;22890;51.820;8.682;2023-05-27T00:50:29;18.90;;;4.63;;
11024;SDS011;22890;51.820;8.682;2023-05-27T00:52:57;8.83;;;3.87;;
11024;SDS011;22890;51.820;8.682;2023-05-27T00:55:24;11.77;;;4.60;;
11024;SDS011;22890;51.820;8.682;2023-05-27T00:57:52;6.83;;;4.13;;
11024;SDS011;22890;51.820;8.682;2023-05-27T01:00:21;20.70;;;4.03;;
11024;SDS011;22890;51.820;8.682;2023-05-27T01:02:48;11.67;;;4.33;;
11024;SDS011;22890;51.820;8.682;2023-05-27T01:05:16;5.60;;;2.70;;
11024;SDS011;22890;51.820;8.682;2023-05-27T01:08:03;9.47;;;4.53;;
11024;SDS011;22890;51.820;8.682;2023-05-27T01:10:41;8.67;;;3.40;;
11024;SDS011;22890;51.820;8.682;2023-05-27T01:15:44;6.83;;;3.37;;
11024;SDS011;22890;51.820;8.682;2023-05-27T01:18:13;8.67;;;3.83;;
11024;SDS011;22890;51.820;8.682;2023-05-27T01:20:43;10.93;;;4.07;;
11024;SDS011;22890;51.820;8.682;2023-05-27T01:23:13;11.43;;;4.17;;
11024;SDS011;22890;51.820;8.682;2023-05-27T01:25:41;12.20;;;4.20;;
11024;SDS011;22890;51.820;8.682;2023-05-27T01:28:08;6.43;;;3.10;;
11024;SDS011;22890;51.820;8.682;2023-05-27T01:30:35;11.80;;;4.57;;
11024;SDS011;22890;51.820;8.682;2023-05-27T01:33:09;7.47;;;3.43;;
11024;SDS011;22890;51.820;8.682;2023-05-27T01:35:51;9.00;;;4.27;;
11024;SDS011;22890;51.820;8.682;2023-05-27T01:38:21;16.17;;;3.63;;
11024;SDS011;22890;51.820;8.682;2023-05-27T01:40:52;11.00;;;3.60;;
11024;SDS011;22890;51.820;8.682;2023-05-27T01:43:20;8.30;;;3.57;;
11024;SDS011;22890;51.820;8.682;2023-05-27T01:45:48;12.90;;;3.90;;
11024;SDS011;22890;51.820;8.682;2023-05-27T01:48:16;6.43;;;3.77;;
11024;SDS011;22890;51.820;8.682;2023-05-27T01:50:45;14.00;;;4.23;;
11024;SDS011;22890;51.820;8.682;2023-05-27T01:53:12;5.67;;;3.20;;
11024;SDS011;22890;51.820;8.682;2023-05-27T01:55:39;11.93;;;4.30;;
11024;SDS011;22890;51.820;8.682;2023-05-27T01:58:06;8.17;;;3.60;;
11024;SDS011;22890;51.820;8.682;2023-05-27T02:00:33;11.47;;;4.33;;
11024;SDS011;22890;51.820;8.682;2023-05-27T02:03:01;9.47;;;3.23;;
11024;SDS011;22890;51.820;8.682;2023-05-27T02:05:28;10.47;;;3.87;;
11024;SDS011;22890;51.820;8.682;2023-05-27T02:07:55;12.00;;;4.13;;
11024;SDS011;22890;51.820;8.682;2023-05-27T02:10:24;13.27;;;4.07;;
11024;SDS011;22890;51.820;8.682;2023-05-27T02:12:51;13.13;;;4.07;;
11024;SDS011;22890;51.820;8.682;2023-05-27T02:15:18;6.93;;;3.60;;
11024;SDS011;22890;51.820;8.682;2023-05-27T02:17:50;7.23;;;3.87;;
11024;SDS011;22890;51.820;8.682;2023-05-27T02:20:21;9.20;;;3.70;;
11024;SDS011;22890;51.820;8.682;2023-05-27T02:22:51;13.60;;;3.47;;
11024;SDS011;22890;51.820;8.682;2023-05-27T02:25:19;11.47;;;3.40;;
11024;SDS011;22890;51.820;8.682;2023-05-27T02:27:46;7.73;;;3.50;;
11024;SDS011;22890;51.820;8.682;2023-05-27T02:30:14;11.47;;;4.13;;
11024;SDS011;22890;51.820;8.682;2023-05-27T02:32:43;7.53;;;3.50;;
11024;SDS011;22890;51.820;8.682;2023-05-27T02:35:13;15.93;;;4.87;;
11024;SDS011;22890;51.820;8.682;2023-05-27T02:37:43;9.60;;;4.43;;
11024;SDS011;22890;51.820;8.682;2023-05-27T02:40:09;8.20;;;4.07;;
11024;SDS011;22890;51.820;8.682;2023-05-27T02:42:37;9.83;;;4.13;;
11024;SDS011;22890;51.820;8.682;2023-05-27T02:45:04;13.13;;;3.90;;
11024;SDS011;22890;51.820;8.682;2023-05-27T02:47:31;12.30;;;4.13;;
11024;SDS011;22890;51.820;8.682;2023-05-27T02:49:59;10.67;;;4.30;;
11024;SDS011;22890;51.820;8.682;2023-05-27T02:52:26;9.67;;;3.43;;
11024;SDS011;22890;51.820;8.682;2023-05-27T02:54:53;7.30;;;4.07;;
11024;SDS011;22890;51.820;8.682;2023-05-27T02:57:21;10.27;;;3.60;;
11024;SDS011;22890;51.820;8.682;2023-05-27T02:59:48;6.57;;;3.90;;
11024;SDS011;22890;51.820;8.682;2023-05-27T03:02:15;7.30;;;3.30;;
11024;SDS011;22890;51.820;8.682;2023-05-27T03:04:42;8.17;;;3.07;;
11024;SDS011;22890;51.820;8.682;2023-05-27T03:07:10;9.27;;;4.17;;
11024;SDS011;22890;51.820;8.682;2023-05-27T03:09:37;8.77;;;3.43;;
11024;SDS011;22890;51.820;8.682;2023-05-27T03:12:04;13.63;;;3.83;;
11024;SDS011;22890;51.820;8.682;2023-05-27T03:14:31;7.90;;;3.83;;
11024;SDS011;22890;51.820;8.682;2023-05-27T03:16:59;14.93;;;4.03;;
11024;SDS011;22890;51.820;8.682;2023-05-27T03:19:26;4.30;;;3.47;;
11024;SDS011;22890;51.820;8.682;2023-05-27T03:21:53;10.77;;;3.80;;
11024;SDS011;22890;51.820;8.682;2023-05-27T03:24:21;8.03;;;4.40;;
11024;SDS011;22890;51.820;8.682;2023-05-27T03:26:48;11.30;;;3.53;;
11024;SDS011;22890;51.820;8.682;2023-05-27T03:29:15;8.87;;;3.60;;
11024;SDS011;22890;51.820;8.682;2023-05-27T03:31:42;5.43;;;3.03;;
11024;SDS011;22890;51.820;8.682;2023-05-27T03:34:14;10.23;;;3.40;;
11024;SDS011;22890;51.820;8.682;2023-05-27T03:36:41;10.57;;;3.83;;
11024;SDS011;22890;51.820;8.682;2023-05-27T03:39:14;7.83;;;3.90;;
11024;SDS011;22890;51.820;8.682;2023-05-27T03:41:48;7.90;;;3.47;;
11024;SDS011;22890;51.820;8.682;2023-05-27T03:44:15;10.10;;;3.57;;
11024;SDS011;22890;51.820;8.682;2023-05-27T03:46:43;8.23;;;3.93;;
11024;SDS011;22890;51.820;8.682;2023-05-27T03:49:10;7.33;;;3.30;;
11024;SDS011;22890;51.820;8.682;2023-05-27T03:51:39;8.37;;;3.63;;
11024;SDS011;22890;51.820;8.682;2023-05-27T03:54:06;8.97;;;3.43;;
11024;SDS011;22890;51.820;8.682;2023-05-27T03:56:33;12.00;;;3.20;;
11024;SDS011;22890;51.820;8.682;2023-05-27T03:59:00;6.30;;;3.47;;
11024;SDS011;22890;51.820;8.682;2023-05-27T04:01:27;10.07;;;3.50;;
11024;SDS011;22890;51.820;8.682;2023-05-27T04:03:55;5.27;;;3.13;;
11024;SDS011;22890;51.820;8.682;2023-05-27T04:06:22;6.00;;;3.30;;
11024;SDS011;22890;51.820;8.682;2023-05-27T04:08:50;7.73;;;3.73;;
11024;SDS011;22890;51.820;8.682;2023-05-27T04:11:17;14.40;;;3.80;;
11024;SDS011;22890;51.820;8.682;2023-05-27T04:13:46;7.77;;;3.57;;
11024;SDS011;22890;51.820;8.682;2023-05-27T04:16:14;8.30;;;3.70;;
11024;SDS011;22890;51.820;8.682;2023-05-27T04:18:42;10.10;;;3.90;;
11024;SDS011;22890;51.820;8.682;2023-05-27T04:21:15;5.03;;;3.03;;
11024;SDS011;22890;51.820;8.682;2023-05-27T04:23:42;9.63;;;3.33;;
11024;SDS011;22890;51.820;8.682;2023-05-27T04:26:09;9.40;;;3.90;;
11024;SDS011;22890;51.820;8.682;2023-05-27T04:28:41;7.23;;;3.60;;
11024;SDS011;22890;51.820;8.682;2023-05-27T04:31:11;12.40;;;3.80;;
11024;SDS011;22890;51.820;8.682;2023-05-27T04:33:45;6.77;;;3.33;;
11024;SDS011;22890;51.820;8.682;2023-05-27T04:36:13;7.87;;;3.93;;
11024;SDS011;22890;51.820;8.682;2023-05-27T04:38:55;5.40;;;3.37;;
11024;SDS011;22890;51.820;8.682;2023-05-27T04:41:22;12.97;;;3.77;;
11024;SDS011;22890;51.820;8.682;2023-05-27T04:44:11;10.87;;;3.80;;
11024;SDS011;22890;51.820;8.682;2023-05-27T04:46:43;9.23;;;3.50;;
11024;SDS011;22890;51.820;8.682;2023-05-27T04:49:11;9.93;;;4.23;;
11024;SDS011;22890;51.820;8.682;2023-05-27T04:51:38;7.97;;;3.43;;
11024;SDS011;22890;51.820;8.682;2023-05-27T04:54:06;10.17;;;3.37;;
11024;SDS011;22890;51.820;8.682;2023-05-27T04:56:34;10.60;;;3.60;;
11024;SDS011;22890;51.820;8.682;2023-05-27T04:59:02;8.07;;;3.80;;
11024;SDS011;22890;51.820;8.682;2023-05-27T05:01:31;9.40;;;3.70;;
11024;SDS011;22890;51.820;8.682;2023-05-27T05:04:22;9.97;;;4.30;;
11024;SDS011;22890;51.820;8.682;2023-05-27T05:06:53;8.60;;;3.83;;
11024;SDS011;22890;51.820;8.682;2023-05-27T05:09:23;8.53;;;4.10;;
11024;SDS011;22890;51.820;8.682;2023-05-27T05:11:51;9.40;;;3.97;;
11024;SDS011;22890;51.820;8.682;2023-05-27T05:14:18;9.87;;;4.00;;
11024;SDS011;22890;51.820;8.682;2023-05-27T05:16:45;10.80;;;4.27;;
11024;SDS011;22890;51.820;8.682;2023-05-27T05:19:13;9.83;;;4.03;;
11024;SDS011;22890;51.820;8.682;2023-05-27T05:21:40;8.60;;;4.00;;
11024;SDS011;22890;51.820;8.682;2023-05-27T05:24:10;9.97;;;4.43;;
11024;SDS011;22890;51.820;8.682;2023-05-27T05:26:39;11.00;;;4.17;;
11024;SDS011;22890;51.820;8.682;2023-05-27T05:29:08;9.77;;;4.27;;
11024;SDS011;22890;51.820;8.682;2023-05-27T05:31:35;9.83;;;4.03;;
11024;SDS011;22890;51.820;8.682;2023-05-27T05:34:02;10.47;;;4.40;;
11024;SDS011;22890;51.820;8.682;2023-05-27T05:36:32;9.80;;;4.47;;
11024;SDS011;22890;51.820;8.682;2023-05-27T05:39:04;13.10;;;3.93;;
11024;SDS011;22890;51.820;8.682;2023-05-27T05:41:33;12.07;;;4.60;;
11024;SDS011;22890;51.820;8.682;2023-05-27T05:44:01;11.80;;;4.40;;
11024;SDS011;22890;51.820;8.682;2023-05-27T05:46:28;14.00;;;4.50;;
11024;SDS011;22890;51.820;8.682;2023-05-27T05:48:55;6.97;;;4.30;;
11024;SDS011;22890;51.820;8.682;2023-05-27T05:51:33;9.97;;;4.30;;
11024;SDS011;22890;51.820;8.682;2023-05-27T05:54:00;9.63;;;3.80;;
11024;SDS011;22890;51.820;8.682;2023-05-27T05:56:29;14.57;;;4.07;;
11024;SDS011;22890;51.820;8.682;2023-05-27T05:58:57;9.93;;;4.67;;
11024;SDS011;22890;51.820;8.682;2023-05-27T06:01:27;12.43;;;5.00;;
11024;SDS011;22890;51.820;8.682;2023-05-27T06:03:55;12.87;;;4.67;;
11024;SDS011;22890;51.820;8.682;2023-05-27T06:06:32;13.37;;;4.90;;
11024;SDS011;22890;51.820;8.682;2023-05-27T06:09:24;12.53;;;4.77;;
11024;SDS011;22890;51.820;8.682;2023-05-27T06:11:54;12.03;;;5.27;;
11024;SDS011;22890;51.820;8.682;2023-05-27T06:14:22;11.27;;;4.80;;
11024;SDS011;22890;51.820;8.682;2023-05-27T06:16:52;17.70;;;5.27;;
11024;SDS011;22890;51.820;8.682;2023-05-27T06:19:19;10.30;;;4.47;;
11024;SDS011;22890;51.820;8.682;2023-05-27T06:21:46;12.13;;;5.60;;
11024;SDS011;22890;51.820;8.682;2023-05-27T06:24:31;10.87;;;4.87;;
11024;SDS011;22890;51.820;8.682;2023-05-27T06:27:17;11.37;;;4.27;;
11024;SDS011;22890;51.820;8.682;2023-05-27T06:29:43;16.00;;;4.87;;
11024;SDS011;22890;51.820;8.682;2023-05-27T06:32:13;13.67;;;4.33;;
11024;SDS011;22890;51.820;8.682;2023-05-27T06:34:40;11.00;;;4.03;;
11024;SDS011;22890;51.820;8.682;2023-05-27T06:37:07;16.53;;;4.80;;
11024;SDS011;22890;51.820;8.682;2023-05-27T06:39:34;10.80;;;4.60;;
11024;SDS011;22890;51.820;8.682;2023-05-27T06:42:02;13.23;;;5.23;;
11024;SDS011;22890;51.820;8.682;2023-05-27T06:44:41;12.57;;;4.53;;
11024;SDS011;22890;51.820;8.682;2023-05-27T06:47:29;12.90;;;4.30;;
11024;SDS011;22890;51.820;8.682;2023-05-27T06:49:56;13.50;;;4.90;;
11024;SDS011;22890;51.820;8.682;2023-05-27T06:52:23;17.60;;;5.03;;
11024;SDS011;22890;51.820;8.682;2023-05-27T06:55:23;11.63;;;4.40;;
11024;SDS011;22890;51.820;8.682;2023-05-27T06:58:16;12.07;;;4.60;;
11024;SDS011;22890;51.820;8.682;2023-05-27T07:00:59;13.17;;;3.77;;
11024;SDS011;22890;51.820;8.682;2023-05-27T07:03:48;14.13;;;4.13;;
11024;SDS011;22890;51.820;8.682;2023-05-27T07:06:21;6.80;;;3.43;;
11024;SDS011;22890;51.820;8.682;2023-05-27T07:08:51;11.00;;;3.80;;
11024;SDS011;22890;51.820;8.682;2023-05-27T07:11:29;10.73;;;3.90;;
11024;SDS011;22890;51.820;8.682;2023-05-27T07:14:00;11.97;;;3.87;;
11024;SDS011;22890;51.820;8.682;2023-05-27T07:16:30;9.63;;;4.07;;
11024;SDS011;22890;51.820;8.682;2023-05-27T07:18:58;11.83;;;3.97;;
11024;SDS011;22890;51.820;8.682;2023-05-27T07:21:29;8.57;;;4.53;;
11024;SDS011;22890;51.820;8.682;2023-05-27T07:23:56;9.67;;;3.73;;
11024;SDS011;22890;51.820;8.682;2023-05-27T07:26:32;16.47;;;4.80;;
11024;SDS011;22890;51.820;8.682;2023-05-27T07:29:00;10.73;;;4.27;;
11024;SDS011;22890;51.820;8.682;2023-05-27T07:31:45;12.57;;;3.60;;
11024;SDS011;22890;51.820;8.682;2023-05-27T07:34:15;11.43;;;3.70;;
11024;SDS011;22890;51.820;8.682;2023-05-27T07:36:42;8.67;;;3.77;;
11024;SDS011;22890;51.820;8.682;2023-05-27T07:39:10;10.53;;;3.63;;
11024;SDS011;22890;51.820;8.682;2023-05-27T07:41:37;13.13;;;3.97;;
11024;SDS011;22890;51.820;8.682;2023-05-27T07:44:05;11.20;;;3.53;;
11024;SDS011;22890;51.820;8.682;2023-05-27T07:46:31;8.43;;;3.27;;
11024;SDS011;22890;51.820;8.682;2023-05-27T07:49:00;12.23;;;4.77;;
11024;SDS011;22890;51.820;8.682;2023-05-27T07:51:28;10.67;;;4.23;;
11024;SDS011;22890;51.820;8.682;2023-05-27T07:53:59;8.97;;;3.83;;
11024;SDS011;22890;51.820;8.682;2023-05-27T07:56:26;7.77;;;3.53;;
11024;SDS011;22890;51.820;8.682;2023-05-27T07:58:53;9.70;;;3.23;;
11024;SDS011;22890;51.820;8.682;2023-05-27T08:01:21;16.87;;;4.47;;
11024;SDS011;22890;51.820;8.682;2023-05-27T08:03:52;12.03;;;3.60;;
11024;SDS011;22890;51.820;8.682;2023-05-27T08:06:39;12.37;;;4.20;;
11024;SDS011;22890;51.820;8.682;2023-05-27T08:09:23;8.97;;;3.10;;
11024;SDS011;22890;51.820;8.682;2023-05-27T08:12:23;7.70;;;3.60;;
11024;SDS011;22890;51.820;8.682;2023-05-27T08:15:09;11.77;;;4.30;;
11024;SDS011;22890;51.820;8.682;2023-05-27T08:17:56;17.07;;;4.40;;
11024;SDS011;22890;51.820;8.682;2023-05-27T08:20:37;10.83;;;3.83;;
11024;SDS011;22890;51.820;8.682;2023-05-27T08:23:20;8.13;;;3.33;;
11024;SDS011;22890;51.820;8.682;2023-05-27T08:26:11;12.97;;;3.37;;
11024;SDS011;22890;51.820;8.682;2023-05-27T08:28:53;10.33;;;3.17;;
11024;SDS011;22890;51.820;8.682;2023-05-27T08:31:43;10.43;;;3.63;;
11024;SDS011;22890;51.820;8.682;2023-05-27T08:34:10;10.17;;;3.40;;
11024;SDS011;22890;51.820;8.682;2023-05-27T08:36:38;14.50;;;3.87;;
11024;SDS011;22890;51.820;8.682;2023-05-27T08:39:05;12.87;;;4.23;;
11024;SDS011;22890;51.820;8.682;2023-05-27T08:41:40;8.83;;;4.17;;
11024;SDS011;22890;51.820;8.682;2023-05-27T08:44:08;13.30;;;3.60;;
11024;SDS011;22890;51.820;8.682;2023-05-27T08:46:50;9.13;;;3.30;;
11024;SDS011;22890;51.820;8.682;2023-05-27T08:49:18;10.63;;;3.43;;
11024;SDS011;22890;51.820;8.682;2023-05-27T08:51:45;10.70;;;3.80;;
11024;SDS011;22890;51.820;8.682;2023-05-27T08:54:13;15.67;;;4.20;;
11024;SDS011;22890;51.820;8.682;2023-05-27T08:56:40;12.80;;;4.50;;
11024;SDS011;22890;51.820;8.682;2023-05-27T08:59:11;9.60;;;3.90;;
11024;SDS011;22890;51.820;8.682;2023-05-27T09:01:38;11.00;;;4.77;;
11024;SDS011;22890;51.820;8.682;2023-05-27T09:04:06;9.37;;;3.80;;
11024;SDS011;22890;51.820;8.682;2023-05-27T09:06:33;7.80;;;3.30;;
11024;SDS011;22890;51.820;8.682;2023-05-27T09:09:01;9.30;;;3.77;;
11024;SDS011;22890;51.820;8.682;2023-05-27T09:11:27;13.37;;;4.30;;
11024;SDS011;22890;51.820;8.682;2023-05-27T09:13:56;7.47;;;3.60;;
11024;SDS011;22890;51.820;8.682;2023-05-27T09:16:24;7.10;;;3.40;;
11024;SDS011;22890;51.820;8.682;2023-05-27T09:18:51;9.33;;;3.93;;
11024;SDS011;22890;51.820;8.682;2023-05-27T09:21:18;8.03;;;3.67;;
11024;SDS011;22890;51.820;8.682;2023-05-27T09:23:45;8.63;;;3.23;;
11024;SDS011;22890;51.820;8.682;2023-05-27T09:26:12;12.07;;;4.10;;
11024;SDS011;22890;51.820;8.682;2023-05-27T09:28:40;11.40;;;3.97;;
11024;SDS011;22890;51.820;8.682;2023-05-27T09:31:08;11.90;;;4.00;;
11024;SDS011;22890;51.820;8.682;2023-05-27T09:33:36;7.97;;;4.00;;
11024;SDS011;22890;51.820;8.682;2023-05-27T09:36:05;13.13;;;3.37;;
11024;SDS011;22890;51.820;8.682;2023-05-27T09:38:33;8.60;;;4.07;;
11024;SDS011;22890;51.820;8.682;2023-05-27T09:41:01;9.37;;;3.80;;
11024;SDS011;22890;51.820;8.682;2023-05-27T09:43:29;9.97;;;3.73;;
11024;SDS011;22890;51.820;8.682;2023-05-27T09:46:00;12.03;;;3.70;;
11024;SDS011;22890;51.820;8.682;2023-05-27T09:48:31;8.50;;;4.03;;
11024;SDS011;22890;51.820;8.682;2023-05-27T09:50:58;11.07;;;3.80;;
11024;SDS011;22890;51.820;8.682;2023-05-27T09:53:27;7.93;;;3.23;;
11024;SDS011;22890;51.820;8.682;2023-05-27T09:55:54;10.13;;;3.57;;
11024;SDS011;22890;51.820;8.682;2023-05-27T09:58:22;7.87;;;3.87;;
11024;SDS011;22890;51.820;8.682;2023-05-27T10:00:49;7.83;;;3.63;;
11024;SDS011;22890;51.820;8.682;2023-05-27T10:03:18;9.30;;;3.90;;
11024;SDS011;22890;51.820;8.682;2023-05-27T10:05:48;7.60;;;4.13;;
11024;SDS011;22890;51.820;8.682;2023-05-27T10:08:17;8.43;;;4.20;;
11024;SDS011;22890;51.820;8.682;2023-05-27T10:10:52;6.97;;;3.00;;
11024;SDS011;22890;51.820;8.682;2023-05-27T10:13:20;8.67;;;3.20;;
11024;SDS011;22890;51.820;8.682;2023-05-27T10:15:48;11.07;;;3.50;;
11024;SDS011;22890;51.820;8.682;2023-05-27T10:18:22;6.47;;;3.27;;
11024;SDS011;22890;51.820;8.682;2023-05-27T10:20:54;10.20;;;3.37;;
11024;SDS011;22890;51.820;8.682;2023-05-27T10:23:24;11.73;;;3.90;;
11024;SDS011;22890;51.820;8.682;2023-05-27T10:25:53;7.47;;;3.40;;
11024;SDS011;22890;51.820;8.682;2023-05-27T10:28:30;6.30;;;2.93;;
11024;SDS011;22890;51.820;8.682;2023-05-27T10:31:06;9.23;;;4.17;;
11024;SDS011;22890;51.820;8.682;2023-05-27T10:33:47;7.17;;;2.80;;
11024;SDS011;22890;51.820;8.682;2023-05-27T10:36:16;5.07;;;3.00;;
11024;SDS011;22890;51.820;8.682;2023-05-27T10:39:21;9.77;;;3.47;;
11024;SDS011;22890;51.820;8.682;2023-05-27T10:41:51;8.10;;;3.53;;
11024;SDS011;22890;51.820;8.682;2023-05-27T10:44:35;10.67;;;3.30;;
11024;SDS011;22890;51.820;8.682;2023-05-27T10:47:04;6.40;;;3.23;;
11024;SDS011;22890;51.820;8.682;2023-05-27T10:49:36;9.47;;;3.57;;
11024;SDS011;22890;51.820;8.682;2023-05-27T10:52:08;5.93;;;2.87;;
11024;SDS011;22890;51.820;8.682;2023-05-27T10:54:39;12.13;;;3.57;;
11024;SDS011;22890;51.820;8.682;2023-05-27T10:57:07;6.97;;;3.37;;
11024;SDS011;22890;51.820;8.682;2023-05-27T10:59:45;7.73;;;3.83;;
11024;SDS011;22890;51.820;8.682;2023-05-27T11:02:13;7.07;;;3.47;;
11024;SDS011;22890;51.820;8.682;2023-05-27T11:04:41;7.60;;;2.93;;
11024;SDS011;22890;51.820;8.682;2023-05-27T11:07:08;7.80;;;3.53;;
11024;SDS011;22890;51.820;8.682;2023-05-27T11:09:45;5.43;;;2.73;;
11024;SDS011;22890;51.820;8.682;2023-05-27T11:12:23;8.13;;;2.93;;
11024;SDS011;22890;51.820;8.682;2023-05-27T11:14:51;8.47;;;3.33;;
11024;SDS011;22890;51.820;8.682;2023-05-27T11:17:19;6.20;;;2.93;;
11024;SDS011;22890;51.820;8.682;2023-05-27T11:19:47;10.23;;;3.70;;
11024;SDS011;22890;51.820;8.682;2023-05-27T11:22:15;9.47;;;3.83;;
11024;SDS011;22890;51.820;8.682;2023-05-27T11:24:54;7.43;;;3.30;;
11024;SDS011;22890;51.820;8.682;2023-05-27T11:27:22;12.63;;;3.47;;
11024;SDS011;22890;51.820;8.682;2023-05-27T11:29:49;7.90;;;3.67;;
11024;SDS011;22890;51.820;8.682;2023-05-27T11:32:17;8.17;;;3.33;;
11024;SDS011;22890;51.820;8.682;2023-05-27T11:34:45;4.93;;;2.70;;
11024;SDS011;22890;51.820;8.682;2023-05-27T11:37:13;6.37;;;3.07;;
11024;SDS011;22890;51.820;8.682;2023-05-27T11:39:52;6.33;;;3.47;;
11024;SDS011;22890;51.820;8.682;2023-05-27T11:42:22;12.80;;;3.73;;
11024;SDS011;22890;51.820;8.682;2023-05-27T11:44:51;7.10;;;2.93;;
11024;SDS011;22890;51.820;8.682;2023-05-27T11:47:19;5.50;;;3.23;;
11024;SDS011;22890;51.820;8.682;2023-05-27T11:49:49;6.87;;;3.20;;
11024;SDS011;22890;51.820;8.682;2023-05-27T11:52:17;10.27;;;3.47;;
11024;SDS011;22890;51.820;8.682;2023-05-27T11:54:44;7.53;;;4.07;;
11024;SDS011;22890;51.820;8.682;2023-05-27T11:57:23;8.50;;;3.30;;
11024;SDS011;22890;51.820;8.682;2023-05-27T11:59:51;5.87;;;2.90;;
11024;SDS011;22890;51.820;8.682;2023-05-27T12:02:18;6.33;;;3.37;;
11024;SDS011;22890;51.820;8.682;2023-05-27T12:04:47;5.70;;;2.50;;
11024;SDS011;22890;51.820;8.682;2023-05-27T12:07:14;8.17;;;3.07;;
11024;SDS011;22890;51.820;8.682;2023-05-27T12:09:46;6.20;;;2.83;;
11024;SDS011;22890;51.820;8.682;2023-05-27T12:12:15;7.90;;;3.33;;
11024;SDS011;22890;51.820;8.682;2023-05-27T12:14:42;5.03;;;2.70;;
11024;SDS011;22890;51.820;8.682;2023-05-27T12:17:09;6.23;;;2.63;;
11024;SDS011;22890;51.820;8.682;2023-05-27T12:19:36;6.30;;;2.70;;
11024;SDS011;22890;51.820;8.682;2023-05-27T12:22:03;6.43;;;3.00;;
11024;SDS011;22890;51.820;8.682;2023-05-27T12:24:30;7.43;;;2.83;;
11024;SDS011;22890;51.820;8.682;2023-05-27T12:26:57;10.53;;;3.73;;
11024;SDS011;22890;51.820;8.682;2023-05-27T12:29:24;4.43;;;2.63;;
11024;SDS011;22890;51.820;8.682;2023-05-27T12:31:52;8.47;;;3.40;;
11024;SDS011;22890;51.820;8.682;2023-05-27T12:34:19;7.03;;;2.93;;
11024;SDS011;22890;51.820;8.682;2023-05-27T12:36:46;7.97;;;2.87;;
11024;SDS011;22890;51.820;8.682;2023-05-27T12:39:14;5.83;;;3.20;;
11024;SDS011;22890;51.820;8.682;2023-05-27T12:41:42;7.80;;;3.30;;
11024;SDS011;22890;51.820;8.682;2023-05-27T12:44:09;9.57;;;3.33;;
11024;SDS011;22890;51.820;8.682;2023-05-27T12:46:36;7.43;;;2.70;;
11024;SDS011;22890;51.820;8.682;2023-05-27T12:49:04;8.27;;;2.80;;
11024;SDS011;22890;51.820;8.682;2023-05-27T12:51:33;6.23;;;3.07;;
11024;SDS011;22890;51.820;8.682;2023-05-27T12:54:01;5.70;;;3.03;;
11024;SDS011;22890;51.820;8.682;2023-05-27T12:56:28;5.53;;;2.90;;
11024;SDS011;22890;51.820;8.682;2023-05-27T12:58:55;7.63;;;3.30;;
11024;SDS011;22890;51.820;8.682;2023-05-27T13:01:22;6.00;;;3.47;;
11024;SDS011;22890;51.820;8.682;2023-05-27T13:03:49;7.93;;;3.07;;
11024;SDS011;22890;51.820;8.682;2023-05-27T13:06:17;5.67;;;2.67;;
11024;SDS011;22890;51.820;8.682;2023-05-27T13:08:45;7.53;;;2.73;;
11024;SDS011;22890;51.820;8.682;2023-05-27T13:11:12;5.40;;;2.63;;
11024;SDS011;22890;51.820;8.682;2023-05-27T13:13:39;6.37;;;2.53;;
11024;SDS011;22890;51.820;8.682;2023-05-27T13:16:06;9.20;;;3.10;;
11024;SDS011;22890;51.820;8.682;2023-05-27T13:18:33;6.33;;;3.20;;
11024;SDS011;22890;51.820;8.682;2023-05-27T13:21:01;5.90;;;2.83;;
11024;SDS011;22890;51.820;8.682;2023-05-27T13:23:29;4.70;;;2.60;;
11024;SDS011;22890;51.820;8.682;2023-05-27T13:25:56;5.73;;;2.93;;
11024;SDS011;22890;51.820;8.682;2023-05-27T13:28:23;7.80;;;3.10;;
11024;SDS011;22890;51.820;8.682;2023-05-27T13:30:50;4.97;;;2.60;;
11024;SDS011;22890;51.820;8.682;2023-05-27T13:33:17;6.03;;;2.80;;
11024;SDS011;22890;51.820;8.682;2023-05-27T13:35:44;8.97;;;3.70;;
11024;SDS011;22890;51.820;8.682;2023-05-27T13:38:11;6.20;;;2.80;;
11024;SDS011;22890;51.820;8.682;2023-05-27T13:40:40;8.90;;;3.40;;
11024;SDS011;22890;51.820;8.682;2023-05-27T13:43:08;5.80;;;3.03;;
11024;SDS011;22890;51.820;8.682;2023-05-27T13:45:35;8.30;;;2.87;;
11024;SDS011;22890;51.820;8.682;2023-05-27T13:48:02;7.07;;;2.67;;
11024;SDS011;22890;51.820;8.682;2023-05-27T13:50:29;4.33;;;2.87;;
11024;SDS011;22890;51.820;8.682;2023-05-27T13:52:57;6.43;;;3.83;;
11024;SDS011;22890;51.820;8.682;2023-05-27T13:55:24;7.50;;;2.83;;
11024;SDS011;22890;51.820;8.682;2023-05-27T13:57:52;4.17;;;2.50;;
11024;SDS011;22890;51.820;8.682;2023-05-27T14:00:19;7.60;;;3.43;;
11024;SDS011;22890;51.820;8.682;2023-05-27T14:02:48;6.90;;;2.90;;
11024;SDS011;22890;51.820;8.682;2023-05-27T14:05:15;9.43;;;3.17;;
11024;SDS011;22890;51.820;8.682;2023-05-27T14:07:43;6.60;;;2.73;;
11024;SDS011;22890;51.820;8.682;2023-05-27T14:10:12;6.33;;;2.73;;
11024;SDS011;22890;51.820;8.682;2023-05-27T14:12:39;6.97;;;3.37;;
11024;SDS011;22890;51.820;8.682;2023-05-27T14:15:06;12.77;;;3.37;;
11024;SDS011;22890;51.820;8.682;2023-05-27T14:17:33;4.83;;;3.27;;
11024;SDS011;22890;51.820;8.682;2023-05-27T14:20:01;6.67;;;3.00;;
11024;SDS011;22890;51.820;8.682;2023-05-27T14:22:28;6.10;;;2.90;;
11024;SDS011;22890;51.820;8.682;2023-05-27T14:24:55;4.10;;;2.83;;
11024;SDS011;22890;51.820;8.682;2023-05-27T14:27:22;6.40;;;3.20;;
11024;SDS011;22890;51.820;8.682;2023-05-27T14:29:50;6.53;;;3.20;;
11024;SDS011;22890;51.820;8.682;2023-05-27T14:32:17;6.20;;;2.93;;
11024;SDS011;22890;51.820;8.682;2023-05-27T14:34:44;5.33;;;2.73;;
11024;SDS011;22890;51.820;8.682;2023-05-27T14:37:11;5.90;;;2.83;;
11024;SDS011;22890;51.820;8.682;2023-05-27T14:39:38;5.33;;;2.80;;
11024;SDS011;22890;51.820;8.682;2023-05-27T14:42:06;5.17;;;2.67;;
11024;SDS011;22890;51.820;8.682;2023-05-27T14:44:34;5.70;;;2.70;;
11024;SDS011;22890;51.820;8.682;2023-05-27T14:47:03;5.07;;;2.47;;
11024;SDS011;22890;51.820;8.682;2023-05-27T14:49:30;5.50;;;2.87;;
11024;SDS011;22890;51.820;8.682;2023-05-27T14:51:58;5.80;;;2.40;;
11024;SDS011;22890;51.820;8.682;2023-05-27T14:54:25;6.67;;;2.73;;
11024;SDS011;22890;51.820;8.682;2023-05-27T14:56:52;4.80;;;2.47;;
11024;SDS011;22890;51.820;8.682;2023-05-27T14:59:20;4.77;;;2.97;;
11024;SDS011;22890;51.820;8.682;2023-05-27T15:01:48;5.10;;;2.43;;